sensor_id;sensor_type;location;lat;lon;timestamp;pressure;altitude;pressure_sealevel;temperature;humidity
69689;BME280;56932;38.402;-96.176;2023-02-01T00:01:09;98701.91;;;20.23;12.52
69689;BME280;56932;38.402;-96.176;2023-02-01T00:03:34;98715.12;;;19.70;12.64
69689;BME280;56932;38.402;-96.176;2023-02-01T00:06:00;98718.14;;;19.52;12.68
69689;BME280;56932;38.402;-96.176;2023-02-01T00:08:25;98718.57;;;19.66;12.59
69689;BME280;56932;38.402;-96.176;2023-02-01T00:10:59;98706.28;;;19.36;12.71
69689;BME280;56932;38.402;-96.176;2023-02-01T00:13:16;98693.91;;;19.02;12.74
69689;BME280;56932;38.402;-96.176;2023-02-01T00:15:42;98698.05;;;19.55;12.62
69689;BME280;56932;38.402;-96.176;2023-02-01T00:18:07;98700.94;;;19.58;12.55
69689;BME280;56932;38.402;-96.176;2023-02-01T00:20:33;98701.57;;;19.01;12.73
69689;BME280;56932;38.402;-96.176;2023-02-01T00:22:58;98702.22;;;19.30;12.73
69689;BME280;56932;38.402;-96.176;2023-02-01T00:25:24;98702.02;;;18.75;12.98
69689;BME280;56932;38.402;-96.176;2023-02-01T00:27:50;98715.29;;;19.41;12.56
69689;BME280;56932;38.402;-96.176;2023-02-01T00:30:16;98708.68;;;18.35;12.97
69689;BME280;56932;38.402;-96.176;2023-02-01T00:32:41;98714.31;;;19.11;12.68
69689;BME280;56932;38.402;-96.176;2023-02-01T00:35:08;98713.22;;;19.57;12.53
69689;BME280;56932;38.402;-96.176;2023-02-01T00:37:32;98708.01;;;19.23;12.53
69689;BME280;56932;38.402;-96.176;2023-02-01T00:39:58;98706.59;;;19.39;12.51
69689;BME280;56932;38.402;-96.176;2023-02-01T00:42:23;98701.76;;;18.62;12.85
69689;BME280;56932;38.402;-96.176;2023-02-01T00:44:49;98701.40;;;19.12;12.57
69689;BME280;56932;38.402;-96.176;2023-02-01T00:47:14;98702.33;;;19.37;12.33
69689;BME280;56932;38.402;-96.176;2023-02-01T00:49:40;98694.96;;;19.42;12.50
69689;BME280;56932;38.402;-96.176;2023-02-01T00:52:06;98693.59;;;19.36;12.43
69689;BME280;56932;38.402;-96.176;2023-02-01T00:54:31;98687.28;;;17.98;13.13
69689;BME280;56932;38.402;-96.176;2023-02-01T00:56:57;98697.11;;;18.32;13.19
69689;BME280;56932;38.402;-96.176;2023-02-01T00:59:22;98705.15;;;17.38;13.77
69689;BME280;56932;38.402;-96.176;2023-02-01T01:01:48;98701.71;;;17.42;13.84
69689;BME280;56932;38.402;-96.176;2023-02-01T01:04:13;98690.70;;;16.94;13.86
69689;BME280;56932;38.402;-96.176;2023-02-01T01:06:39;98693.00;;;17.45;13.94
69689;BME280;56932;38.402;-96.176;2023-02-01T01:09:06;98694.64;;;17.90;13.73
69689;BME280;56932;38.402;-96.176;2023-02-01T01:11:32;98704.33;;;17.83;13.68
69689;BME280;56932;38.402;-96.176;2023-02-01T01:13:57;98713.89;;;17.75;13.77
69689;BME280;56932;38.402;-96.176;2023-02-01T01:16:23;98718.70;;;17.80;13.79
69689;BME280;56932;38.402;-96.176;2023-02-01T01:18:48;98722.14;;;18.01;13.72
69689;BME280;56932;38.402;-96.176;2023-02-01T01:21:15;98727.72;;;17.44;13.70
69689;BME280;56932;38.402;-96.176;2023-02-01T01:23:38;98724.12;;;18.20;13.58
69689;BME280;56932;38.402;-96.176;2023-02-01T01:26:06;98721.15;;;18.78;13.56
69689;BME280;56932;38.402;-96.176;2023-02-01T01:28:29;98727.94;;;18.38;13.56
69689;BME280;56932;38.402;-96.176;2023-02-01T01:30:55;98728.25;;;18.58;13.50
69689;BME280;56932;38.402;-96.176;2023-02-01T01:33:20;98725.13;;;18.26;13.69
69689;BME280;56932;38.402;-96.176;2023-02-01T01:35:46;98723.19;;;18.66;13.53
69689;BME280;56932;38.402;-96.176;2023-02-01T01:38:12;98732.01;;;18.40;13.58
69689;BME280;56932;38.402;-96.176;2023-02-01T01:40:37;98730.33;;;18.81;13.40
69689;BME280;56932;38.402;-96.176;2023-02-01T01:43:02;98728.00;;;18.75;13.58
69689;BME280;56932;38.402;-96.176;2023-02-01T01:45:30;98737.92;;;19.01;13.49
69689;BME280;56932;38.402;-96.176;2023-02-01T01:47:56;98734.85;;;18.69;13.55
69689;BME280;56932;38.402;-96.176;2023-02-01T01:50:23;98730.47;;;18.51;13.67
69689;BME280;56932;38.402;-96.176;2023-02-01T01:52:47;98731.48;;;19.01;13.54
69689;BME280;56932;38.402;-96.176;2023-02-01T01:55:12;98728.94;;;19.02;13.56
69689;BME280;56932;38.402;-96.176;2023-02-01T01:57:38;98737.11;;;18.94;13.60
69689;BME280;56932;38.402;-96.176;2023-02-01T02:00:05;98730.38;;;18.69;13.76
69689;BME280;56932;38.402;-96.176;2023-02-01T02:02:26;98730.53;;;18.47;13.90
69689;BME280;56932;38.402;-96.176;2023-02-01T02:04:52;98731.81;;;19.30;13.35
69689;BME280;56932;38.402;-96.176;2023-02-01T02:07:23;98725.93;;;19.12;13.18
69689;BME280;56932;38.402;-96.176;2023-02-01T02:09:43;98720.27;;;18.84;13.61
69689;BME280;56932;38.402;-96.176;2023-02-01T02:12:09;98719.43;;;18.38;13.97
69689;BME280;56932;38.402;-96.176;2023-02-01T02:14:35;98717.06;;;18.69;13.80
69689;BME280;56932;38.402;-96.176;2023-02-01T02:17:10;98730.54;;;18.75;13.66
69689;BME280;56932;38.402;-96.176;2023-02-01T02:19:35;98731.76;;;18.28;13.79
69689;BME280;56932;38.402;-96.176;2023-02-01T02:31:49;98705.26;;;19.59;13.08
69689;BME280;56932;38.402;-96.176;2023-02-01T02:34:05;98703.97;;;20.27;12.51
69689;BME280;56932;38.402;-96.176;2023-02-01T02:36:33;98704.96;;;19.43;12.95
69689;BME280;56932;38.402;-96.176;2023-02-01T02:38:55;98705.34;;;20.53;12.48
69689;BME280;56932;38.402;-96.176;2023-02-01T02:41:18;98709.55;;;20.23;12.36
69689;BME280;56932;38.402;-96.176;2023-02-01T02:43:45;98720.84;;;20.68;12.32
69689;BME280;56932;38.402;-96.176;2023-02-01T02:46:14;98714.89;;;20.24;12.76
69689;BME280;56932;38.402;-96.176;2023-02-01T02:48:37;98706.75;;;20.19;12.74
69689;BME280;56932;38.402;-96.176;2023-02-01T02:51:01;98713.79;;;20.63;12.56
69689;BME280;56932;38.402;-96.176;2023-02-01T02:53:25;98704.33;;;20.28;12.61
69689;BME280;56932;38.402;-96.176;2023-02-01T02:55:50;98705.25;;;20.73;12.49
69689;BME280;56932;38.402;-96.176;2023-02-01T02:58:16;98705.53;;;20.53;12.33
69689;BME280;56932;38.402;-96.176;2023-02-01T03:00:40;98697.52;;;20.40;12.54
69689;BME280;56932;38.402;-96.176;2023-02-01T03:03:06;98705.47;;;20.59;12.62
69689;BME280;56932;38.402;-96.176;2023-02-01T03:05:34;98708.60;;;20.55;12.53
69689;BME280;56932;38.402;-96.176;2023-02-01T03:08:02;98713.31;;;20.48;12.59
69689;BME280;56932;38.402;-96.176;2023-02-01T03:10:29;98713.17;;;20.37;12.55
69689;BME280;56932;38.402;-96.176;2023-02-01T03:12:48;98719.48;;;20.82;12.40
69689;BME280;56932;38.402;-96.176;2023-02-01T03:15:13;98721.60;;;20.30;12.49
69689;BME280;56932;38.402;-96.176;2023-02-01T03:17:40;98724.27;;;20.44;12.74
69689;BME280;56932;38.402;-96.176;2023-02-01T03:20:06;98721.51;;;20.83;12.67
69689;BME280;56932;38.402;-96.176;2023-02-01T03:22:30;98721.17;;;20.36;12.84
69689;BME280;56932;38.402;-96.176;2023-02-01T03:24:58;98720.18;;;20.56;12.70
69689;BME280;56932;38.402;-96.176;2023-02-01T03:27:24;98719.66;;;20.64;12.61
69689;BME280;56932;38.402;-96.176;2023-02-01T03:29:56;98722.86;;;20.10;12.74
69689;BME280;56932;38.402;-96.176;2023-02-01T03:32:12;98720.12;;;19.97;12.66
69689;BME280;56932;38.402;-96.176;2023-02-01T03:34:38;98713.89;;;19.98;12.78
69689;BME280;56932;38.402;-96.176;2023-02-01T03:37:05;98726.13;;;20.53;12.47
69689;BME280;56932;38.402;-96.176;2023-02-01T03:39:32;98728.63;;;19.99;12.66
69689;BME280;56932;38.402;-96.176;2023-02-01T03:41:56;98735.88;;;19.86;12.74
69689;BME280;56932;38.402;-96.176;2023-02-01T03:44:24;98737.04;;;19.98;12.63
69689;BME280;56932;38.402;-96.176;2023-02-01T03:46:49;98733.71;;;20.24;12.56
69689;BME280;56932;38.402;-96.176;2023-02-01T03:49:14;98734.67;;;19.76;12.64
69689;BME280;56932;38.402;-96.176;2023-02-01T03:51:38;98740.55;;;19.94;12.53
69689;BME280;56932;38.402;-96.176;2023-02-01T03:54:04;98736.29;;;19.98;12.42
69689;BME280;56932;38.402;-96.176;2023-02-01T03:56:28;98732.57;;;19.45;12.64
69689;BME280;56932;38.402;-96.176;2023-02-01T03:58:53;98727.39;;;19.79;12.48
69689;BME280;56932;38.402;-96.176;2023-02-01T04:01:18;98733.96;;;19.26;12.63
69689;BME280;56932;38.402;-96.176;2023-02-01T04:03:43;98737.38;;;19.68;12.64
69689;BME280;56932;38.402;-96.176;2023-02-01T04:06:10;98728.53;;;19.64;12.53
69689;BME280;56932;38.402;-96.176;2023-02-01T04:08:35;98736.10;;;19.85;12.47
69689;BME280;56932;38.402;-96.176;2023-02-01T04:11:00;98740.65;;;19.76;12.52
69689;BME280;56932;38.402;-96.176;2023-02-01T04:13:26;98742.15;;;19.37;12.45
69689;BME280;56932;38.402;-96.176;2023-02-01T04:15:51;98734.53;;;19.93;12.31
69689;BME280;56932;38.402;-96.176;2023-02-01T04:18:17;98731.35;;;18.80;12.48
69689;BME280;56932;38.402;-96.176;2023-02-01T04:20:43;98722.62;;;19.52;12.46
69689;BME280;56932;38.402;-96.176;2023-02-01T04:23:08;98727.65;;;19.48;12.48
69689;BME280;56932;38.402;-96.176;2023-02-01T04:25:34;98732.17;;;19.12;12.46
69689;BME280;56932;38.402;-96.176;2023-02-01T04:27:59;98730.40;;;19.37;12.43
69689;BME280;56932;38.402;-96.176;2023-02-01T04:30:25;98729.35;;;19.14;12.41
69689;BME280;56932;38.402;-96.176;2023-02-01T04:32:51;98727.64;;;19.77;12.32
69689;BME280;56932;38.402;-96.176;2023-02-01T04:35:16;98727.85;;;18.97;12.35
69689;BME280;56932;38.402;-96.176;2023-02-01T04:37:41;98735.41;;;19.55;12.26
69689;BME280;56932;38.402;-96.176;2023-02-01T04:40:08;98736.47;;;19.25;12.42
69689;BME280;56932;38.402;-96.176;2023-02-01T04:42:33;98740.01;;;18.93;12.30
69689;BME280;56932;38.402;-96.176;2023-02-01T04:44:58;98744.62;;;19.55;12.21
69689;BME280;56932;38.402;-96.176;2023-02-01T04:47:23;98746.06;;;18.60;12.38
69689;BME280;56932;38.402;-96.176;2023-02-01T04:49:49;98743.46;;;19.41;12.17
69689;BME280;56932;38.402;-96.176;2023-02-01T04:52:15;98741.47;;;19.55;12.12
69689;BME280;56932;38.402;-96.176;2023-02-01T04:54:40;98743.36;;;19.13;12.31
69689;BME280;56932;38.402;-96.176;2023-02-01T04:57:05;98744.71;;;19.18;12.30
69689;BME280;56932;38.402;-96.176;2023-02-01T04:59:31;98739.59;;;18.91;12.40
69689;BME280;56932;38.402;-96.176;2023-02-01T05:01:57;98745.62;;;18.81;12.62
69689;BME280;56932;38.402;-96.176;2023-02-01T05:04:22;98751.24;;;17.97;12.97
69689;BME280;56932;38.402;-96.176;2023-02-01T05:06:48;98748.07;;;18.50;13.00
69689;BME280;56932;38.402;-96.176;2023-02-01T05:09:13;98745.91;;;16.74;13.42
69689;BME280;56932;38.402;-96.176;2023-02-01T05:11:39;98745.18;;;17.49;13.56
69689;BME280;56932;38.402;-96.176;2023-02-01T05:14:04;98745.88;;;17.34;13.59
69689;BME280;56932;38.402;-96.176;2023-02-01T05:16:30;98741.01;;;17.64;13.58
69689;BME280;56932;38.402;-96.176;2023-02-01T05:18:56;98744.79;;;17.53;13.69
69689;BME280;56932;38.402;-96.176;2023-02-01T05:21:21;98740.93;;;17.51;13.51
69689;BME280;56932;38.402;-96.176;2023-02-01T05:23:47;98742.41;;;18.18;13.34
69689;BME280;56932;38.402;-96.176;2023-02-01T05:26:13;98742.07;;;17.63;13.54
69689;BME280;56932;38.402;-96.176;2023-02-01T05:28:38;98738.12;;;17.95;13.56
69689;BME280;56932;38.402;-96.176;2023-02-01T05:31:09;98746.67;;;18.15;13.35
69689;BME280;56932;38.402;-96.176;2023-02-01T05:33:29;98750.86;;;18.20;13.36
69689;BME280;56932;38.402;-96.176;2023-02-01T05:35:55;98754.53;;;18.38;13.47
69689;BME280;56932;38.402;-96.176;2023-02-01T05:38:20;98743.83;;;18.50;13.30
69689;BME280;56932;38.402;-96.176;2023-02-01T05:40:46;98749.78;;;18.80;13.16
69689;BME280;56932;38.402;-96.176;2023-02-01T05:43:11;98752.19;;;18.89;13.08
69689;BME280;56932;38.402;-96.176;2023-02-01T05:45:36;98750.89;;;18.52;13.26
69689;BME280;56932;38.402;-96.176;2023-02-01T05:48:02;98752.95;;;19.12;13.13
69689;BME280;56932;38.402;-96.176;2023-02-01T05:50:28;98752.43;;;18.98;12.99
69689;BME280;56932;38.402;-96.176;2023-02-01T05:52:53;98746.57;;;18.77;13.13
69689;BME280;56932;38.402;-96.176;2023-02-01T05:55:19;98735.10;;;18.40;13.35
69689;BME280;56932;38.402;-96.176;2023-02-01T05:57:44;98746.23;;;18.76;13.32
69689;BME280;56932;38.402;-96.176;2023-02-01T06:00:11;98746.17;;;18.70;13.48
69689;BME280;56932;38.402;-96.176;2023-02-01T06:02:35;98742.22;;;19.12;13.08
69689;BME280;56932;38.402;-96.176;2023-02-01T06:05:02;98751.57;;;17.95;12.94
69689;BME280;56932;38.402;-96.176;2023-02-01T06:07:27;98746.04;;;19.64;12.82
69689;BME280;56932;38.402;-96.176;2023-02-01T06:09:52;98749.61;;;19.06;13.37
69689;BME280;56932;38.402;-96.176;2023-02-01T06:12:18;98744.26;;;18.62;13.39
69689;BME280;56932;38.402;-96.176;2023-02-01T06:14:43;98751.45;;;18.89;13.38
69689;BME280;56932;38.402;-96.176;2023-02-01T06:17:09;98753.54;;;19.40;13.23
69689;BME280;56932;38.402;-96.176;2023-02-01T06:19:34;98759.64;;;18.49;13.49
69689;BME280;56932;38.402;-96.176;2023-02-01T06:21:59;98764.58;;;19.07;13.41
69689;BME280;56932;38.402;-96.176;2023-02-01T06:24:25;98763.84;;;18.78;13.34
69689;BME280;56932;38.402;-96.176;2023-02-01T06:26:51;98756.05;;;18.98;13.44
69689;BME280;56932;38.402;-96.176;2023-02-01T06:29:16;98761.69;;;18.02;13.58
69689;BME280;56932;38.402;-96.176;2023-02-01T06:31:42;98767.26;;;19.00;13.48
69689;BME280;56932;38.402;-96.176;2023-02-01T06:34:08;98769.67;;;19.05;13.26
69689;BME280;56932;38.402;-96.176;2023-02-01T06:36:33;98761.14;;;19.78;12.80
69689;BME280;56932;38.402;-96.176;2023-02-01T06:38:59;98760.82;;;19.45;12.96
69689;BME280;56932;38.402;-96.176;2023-02-01T06:41:24;98764.22;;;18.92;13.15
69689;BME280;56932;38.402;-96.176;2023-02-01T06:43:50;98775.80;;;19.36;12.90
69689;BME280;56932;38.402;-96.176;2023-02-01T06:46:15;98774.09;;;19.43;12.63
69689;BME280;56932;38.402;-96.176;2023-02-01T06:48:41;98770.59;;;19.96;12.57
69689;BME280;56932;38.402;-96.176;2023-02-01T06:53:32;98753.28;;;20.34;12.18
69689;BME280;56932;38.402;-96.176;2023-02-01T06:55:59;98748.39;;;20.59;12.03
69689;BME280;56932;38.402;-96.176;2023-02-01T06:58:23;98739.45;;;19.96;12.21
69689;BME280;56932;38.402;-96.176;2023-02-01T07:00:49;98740.00;;;20.41;12.12
69689;BME280;56932;38.402;-96.176;2023-02-01T07:03:14;98740.27;;;19.98;12.12
69689;BME280;56932;38.402;-96.176;2023-02-01T07:05:40;98747.39;;;20.61;12.00
69689;BME280;56932;38.402;-96.176;2023-02-01T07:08:05;98752.65;;;20.59;11.96
69689;BME280;56932;38.402;-96.176;2023-02-01T07:10:31;98754.86;;;20.48;12.02
69689;BME280;56932;38.402;-96.176;2023-02-01T07:12:57;98750.69;;;20.74;11.89
69689;BME280;56932;38.402;-96.176;2023-02-01T07:15:22;98751.18;;;20.20;11.99
69689;BME280;56932;38.402;-96.176;2023-02-01T07:17:47;98741.45;;;20.33;12.05
69689;BME280;56932;38.402;-96.176;2023-02-01T07:20:13;98743.94;;;19.86;11.98
69689;BME280;56932;38.402;-96.176;2023-02-01T07:22:39;98742.33;;;20.34;11.96
69689;BME280;56932;38.402;-96.176;2023-02-01T07:25:05;98741.13;;;20.58;11.85
69689;BME280;56932;38.402;-96.176;2023-02-01T07:27:30;98736.55;;;20.25;11.83
69689;BME280;56932;38.402;-96.176;2023-02-01T07:29:55;98728.58;;;20.47;11.82
69689;BME280;56932;38.402;-96.176;2023-02-01T07:32:21;98722.65;;;20.25;11.87
69689;BME280;56932;38.402;-96.176;2023-02-01T07:34:47;98713.77;;;20.10;11.91
69689;BME280;56932;38.402;-96.176;2023-02-01T07:37:13;98700.83;;;19.88;11.93
69689;BME280;56932;38.402;-96.176;2023-02-01T07:39:38;98706.06;;;20.26;11.79
69689;BME280;56932;38.402;-96.176;2023-02-01T07:42:04;98700.14;;;20.17;11.85
69689;BME280;56932;38.402;-96.176;2023-02-01T07:44:29;98680.10;;;19.88;11.96
69689;BME280;56932;38.402;-96.176;2023-02-01T07:46:54;98676.76;;;20.06;11.92
69689;BME280;56932;38.402;-96.176;2023-02-01T07:49:20;98683.01;;;19.50;11.93
69689;BME280;56932;38.402;-96.176;2023-02-01T07:51:46;98690.91;;;19.79;11.93
69689;BME280;56932;38.402;-96.176;2023-02-01T07:54:12;98686.24;;;19.99;11.80
69689;BME280;56932;38.402;-96.176;2023-02-01T07:56:37;98681.93;;;19.84;11.98
69689;BME280;56932;38.402;-96.176;2023-02-01T07:59:03;98677.55;;;19.99;11.82
69689;BME280;56932;38.402;-96.176;2023-02-01T08:01:29;98676.14;;;19.89;11.79
69689;BME280;56932;38.402;-96.176;2023-02-01T08:03:56;98678.78;;;19.98;11.91
69689;BME280;56932;38.402;-96.176;2023-02-01T08:06:20;98687.78;;;19.41;11.97
69689;BME280;56932;38.402;-96.176;2023-02-01T08:08:45;98692.52;;;19.59;11.94
69689;BME280;56932;38.402;-96.176;2023-02-01T08:11:12;98697.98;;;19.57;11.87
69689;BME280;56932;38.402;-96.176;2023-02-01T08:13:36;98716.33;;;19.44;11.89
69689;BME280;56932;38.402;-96.176;2023-02-01T08:16:04;98704.44;;;19.73;11.93
69689;BME280;56932;38.402;-96.176;2023-02-01T08:18:28;98694.78;;;20.27;11.72
69689;BME280;56932;38.402;-96.176;2023-02-01T08:20:53;98697.45;;;19.34;11.87
69689;BME280;56932;38.402;-96.176;2023-02-01T08:23:19;98694.47;;;19.42;11.86
69689;BME280;56932;38.402;-96.176;2023-02-01T08:25:44;98696.89;;;19.63;11.91
69689;BME280;56932;38.402;-96.176;2023-02-01T08:28:10;98693.28;;;19.27;11.90
69689;BME280;56932;38.402;-96.176;2023-02-01T08:30:37;98696.16;;;19.60;11.75
69689;BME280;56932;38.402;-96.176;2023-02-01T08:33:01;98682.00;;;19.60;11.79
69689;BME280;56932;38.402;-96.176;2023-02-01T08:35:26;98698.18;;;19.23;11.94
69689;BME280;56932;38.402;-96.176;2023-02-01T08:37:52;98702.63;;;18.98;11.94
69689;BME280;56932;38.402;-96.176;2023-02-01T08:40:18;98690.85;;;18.56;12.04
69689;BME280;56932;38.402;-96.176;2023-02-01T08:42:43;98690.52;;;19.20;11.93
69689;BME280;56932;38.402;-96.176;2023-02-01T08:45:10;98695.29;;;19.36;11.84
69689;BME280;56932;38.402;-96.176;2023-02-01T08:47:35;98701.07;;;19.27;12.05
69689;BME280;56932;38.402;-96.176;2023-02-01T08:50:00;98706.33;;;18.19;12.60
69689;BME280;56932;38.402;-96.176;2023-02-01T08:52:26;98719.89;;;17.26;13.11
69689;BME280;56932;38.402;-96.176;2023-02-01T08:54:51;98721.43;;;17.81;12.81
69689;BME280;56932;38.402;-96.176;2023-02-01T08:57:17;98717.86;;;17.27;13.10
69689;BME280;56932;38.402;-96.176;2023-02-01T08:59:42;98720.99;;;17.50;13.25
69689;BME280;56932;38.402;-96.176;2023-02-01T09:02:12;98727.26;;;17.87;13.03
69689;BME280;56932;38.402;-96.176;2023-02-01T09:04:33;98731.76;;;18.05;12.98
69689;BME280;56932;38.402;-96.176;2023-02-01T09:06:59;98729.82;;;17.78;13.17
69689;BME280;56932;38.402;-96.176;2023-02-01T09:09:27;98732.50;;;17.60;13.14
69689;BME280;56932;38.402;-96.176;2023-02-01T09:11:50;98733.99;;;18.52;12.77
69689;BME280;56932;38.402;-96.176;2023-02-01T09:14:15;98728.24;;;17.60;13.02
69689;BME280;56932;38.402;-96.176;2023-02-01T09:16:41;98728.86;;;18.17;13.02
69689;BME280;56932;38.402;-96.176;2023-02-01T09:19:06;98734.59;;;18.70;13.06
69689;BME280;56932;38.402;-96.176;2023-02-01T09:21:32;98737.61;;;18.31;13.05
69689;BME280;56932;38.402;-96.176;2023-02-01T09:23:59;98731.88;;;18.15;13.18
69689;BME280;56932;38.402;-96.176;2023-02-01T09:26:23;98725.08;;;18.25;13.16
69689;BME280;56932;38.402;-96.176;2023-02-01T09:28:49;98722.51;;;18.58;13.05
69689;BME280;56932;38.402;-96.176;2023-02-01T09:31:15;98715.16;;;18.08;13.12
69689;BME280;56932;38.402;-96.176;2023-02-01T09:33:40;98718.62;;;18.95;12.93
69689;BME280;56932;38.402;-96.176;2023-02-01T09:36:06;98720.33;;;19.15;12.87
69689;BME280;56932;38.402;-96.176;2023-02-01T09:38:31;98714.72;;;18.43;13.01
69689;BME280;56932;38.402;-96.176;2023-02-01T09:40:57;98706.59;;;18.66;13.16
69689;BME280;56932;38.402;-96.176;2023-02-01T09:43:32;98702.18;;;18.68;12.96
69689;BME280;56932;38.402;-96.176;2023-02-01T09:45:55;98710.37;;;18.92;13.08
69689;BME280;56932;38.402;-96.176;2023-02-01T09:48:16;98703.50;;;18.02;13.19
69689;BME280;56932;38.402;-96.176;2023-02-01T09:50:41;98694.07;;;18.82;13.20
69689;BME280;56932;38.402;-96.176;2023-02-01T09:53:06;98683.98;;;18.79;13.10
69689;BME280;56932;38.402;-96.176;2023-02-01T09:55:35;98682.68;;;18.83;13.10
69689;BME280;56932;38.402;-96.176;2023-02-01T09:57:59;98672.99;;;19.20;12.83
69689;BME280;56932;38.402;-96.176;2023-02-01T10:00:24;98674.60;;;19.02;12.92
69689;BME280;56932;38.402;-96.176;2023-02-01T10:02:46;98672.67;;;18.39;13.20
69689;BME280;56932;38.402;-96.176;2023-02-01T10:05:15;98673.10;;;18.67;12.94
69689;BME280;56932;38.402;-96.176;2023-02-01T10:07:43;98654.78;;;18.71;13.14
69689;BME280;56932;38.402;-96.176;2023-02-01T10:10:06;98657.75;;;18.98;12.93
69689;BME280;56932;38.402;-96.176;2023-02-01T10:12:39;98658.55;;;18.78;13.04
69689;BME280;56932;38.402;-96.176;2023-02-01T10:15:01;98649.68;;;19.50;12.72
69689;BME280;56932;38.402;-96.176;2023-02-01T10:17:28;98659.30;;;18.87;12.94
69689;BME280;56932;38.402;-96.176;2023-02-01T10:19:51;98653.88;;;19.03;12.84
69689;BME280;56932;38.402;-96.176;2023-02-01T10:22:15;98650.24;;;19.44;12.56
69689;BME280;56932;38.402;-96.176;2023-02-01T10:24:40;98657.49;;;19.45;12.57
69689;BME280;56932;38.402;-96.176;2023-02-01T10:27:09;98666.61;;;19.64;12.48
69689;BME280;56932;38.402;-96.176;2023-02-01T10:29:34;98669.37;;;19.47;12.50
69689;BME280;56932;38.402;-96.176;2023-02-01T10:31:53;98672.41;;;19.13;12.69
69689;BME280;56932;38.402;-96.176;2023-02-01T10:34:22;98673.12;;;20.01;12.06
69689;BME280;56932;38.402;-96.176;2023-02-01T10:36:52;98681.46;;;20.97;11.68
69689;BME280;56932;38.402;-96.176;2023-02-01T10:39:11;98687.36;;;20.56;11.82
69689;BME280;56932;38.402;-96.176;2023-02-01T10:41:36;98697.81;;;20.21;11.83
69689;BME280;56932;38.402;-96.176;2023-02-01T10:44:04;98707.09;;;20.43;11.71
69689;BME280;56932;38.402;-96.176;2023-02-01T10:46:27;98707.44;;;20.37;11.70
69689;BME280;56932;38.402;-96.176;2023-02-01T10:48:55;98711.13;;;20.65;11.70
69689;BME280;56932;38.402;-96.176;2023-02-01T10:51:22;98716.37;;;20.21;11.65
69689;BME280;56932;38.402;-96.176;2023-02-01T10:53:52;98719.53;;;20.65;11.66
69689;BME280;56932;38.402;-96.176;2023-02-01T10:56:10;98719.20;;;20.52;11.67
69689;BME280;56932;38.402;-96.176;2023-02-01T10:58:36;98718.81;;;20.51;11.66
69689;BME280;56932;38.402;-96.176;2023-02-01T11:01:02;98705.77;;;20.33;11.71
69689;BME280;56932;38.402;-96.176;2023-02-01T11:03:33;98714.77;;;20.28;11.71
69689;BME280;56932;38.402;-96.176;2023-02-01T11:05:51;98702.69;;;20.37;11.64
69689;BME280;56932;38.402;-96.176;2023-02-01T11:08:17;98681.14;;;19.85;11.55
69689;BME280;56932;38.402;-96.176;2023-02-01T11:10:44;98684.20;;;20.19;11.51
69689;BME280;56932;38.402;-96.176;2023-02-01T11:13:13;98679.85;;;20.42;11.49
69689;BME280;56932;38.402;-96.176;2023-02-01T11:15:32;98682.18;;;20.16;11.62
69689;BME280;56932;38.402;-96.176;2023-02-01T11:20:34;98676.66;;;20.14;11.44
69689;BME280;56932;38.402;-96.176;2023-02-01T11:22:53;98684.77;;;20.15;11.53
69689;BME280;56932;38.402;-96.176;2023-02-01T11:25:16;98684.56;;;19.20;11.65
69689;BME280;56932;38.402;-96.176;2023-02-01T11:27:40;98681.37;;;20.09;11.69
69689;BME280;56932;38.402;-96.176;2023-02-01T11:30:07;98680.38;;;20.13;11.45
69689;BME280;56932;38.402;-96.176;2023-02-01T11:32:31;98670.98;;;20.07;11.49
69689;BME280;56932;38.402;-96.176;2023-02-01T11:35:00;98674.59;;;19.94;11.64
69689;BME280;56932;38.402;-96.176;2023-02-01T11:37:26;98680.15;;;19.53;11.70
69689;BME280;56932;38.402;-96.176;2023-02-01T11:39:53;98671.85;;;19.62;11.65
69689;BME280;56932;38.402;-96.176;2023-02-01T11:42:15;98673.83;;;18.98;11.69
69689;BME280;56932;38.402;-96.176;2023-02-01T11:44:41;98660.14;;;20.17;11.55
69689;BME280;56932;38.402;-96.176;2023-02-01T11:49:30;98667.39;;;19.21;11.76
69689;BME280;56932;38.402;-96.176;2023-02-01T11:52:08;98659.65;;;19.57;11.75
69689;BME280;56932;38.402;-96.176;2023-02-01T11:54:37;98657.02;;;19.28;11.70
69689;BME280;56932;38.402;-96.176;2023-02-01T11:56:56;98672.75;;;19.56;11.71
69689;BME280;56932;38.402;-96.176;2023-02-01T11:59:21;98684.00;;;19.17;11.69
69689;BME280;56932;38.402;-96.176;2023-02-01T12:01:52;98684.58;;;19.42;11.66
69689;BME280;56932;38.402;-96.176;2023-02-01T12:06:39;98684.30;;;18.60;11.98
69689;BME280;56932;38.402;-96.176;2023-02-01T12:09:07;98689.26;;;19.01;11.70
69689;BME280;56932;38.402;-96.176;2023-02-01T12:11:30;98695.62;;;19.05;11.63
69689;BME280;56932;38.402;-96.176;2023-02-01T12:13:53;98693.03;;;18.99;11.74
69689;BME280;56932;38.402;-96.176;2023-02-01T12:16:22;98700.29;;;18.74;11.78
69689;BME280;56932;38.402;-96.176;2023-02-01T12:21:10;98708.20;;;19.22;11.73
69689;BME280;56932;38.402;-96.176;2023-02-01T12:23:41;98678.28;;;17.93;12.33
69689;BME280;56932;38.402;-96.176;2023-02-01T12:26:03;98677.06;;;18.67;12.12
69689;BME280;56932;38.402;-96.176;2023-02-01T12:31:00;98653.53;;;17.52;12.91
69689;BME280;56932;38.402;-96.176;2023-02-01T12:33:18;98640.50;;;17.95;12.77
69689;BME280;56932;38.402;-96.176;2023-02-01T12:35:52;98637.20;;;17.41;13.08
69689;BME280;56932;38.402;-96.176;2023-02-01T12:38:14;98651.43;;;17.61;12.78
69689;BME280;56932;38.402;-96.176;2023-02-01T12:40:38;98664.93;;;17.77;12.96
69689;BME280;56932;38.402;-96.176;2023-02-01T12:42:59;98680.67;;;17.70;12.94
69689;BME280;56932;38.402;-96.176;2023-02-01T12:45:25;98677.28;;;17.17;13.12
69689;BME280;56932;38.402;-96.176;2023-02-01T12:47:49;98674.95;;;18.07;13.00
69689;BME280;56932;38.402;-96.176;2023-02-01T12:50:17;98665.41;;;17.96;12.97
69689;BME280;56932;38.402;-96.176;2023-02-01T12:52:39;98656.28;;;17.75;13.01
69689;BME280;56932;38.402;-96.176;2023-02-01T12:55:07;98678.84;;;18.23;12.83